sensor_id;sensor_type;location;lat;lon;timestamp;P1;durP1;ratioP1;P2;durP2;ratioP2
40373;SDS011;26079;45.958;12.492;2022-07-29T00:02:17;6.97;;;5.82;;
40373;SDS011;26079;45.958;12.492;2022-07-29T00:04:43;6.22;;;5.18;;
40373;SDS011;26079;45.958;12.492;2022-07-29T00:07:09;6.30;;;5.70;;
40373;SDS011;26079;45.958;12.492;2022-07-29T00:09:34;8.15;;;6.55;;
40373;SDS011;26079;45.958;12.492;2022-07-29T00:12:00;9.10;;;5.43;;
40373;SDS011;26079;45.958;12.492;2022-07-29T00:14:27;6.78;;;5.20;;
40373;SDS011;26079;45.958;12.492;2022-07-29T00:16:53;13.75;;;5.95;;
40373;SDS011;26079;45.958;12.492;2022-07-29T00:19:19;5.97;;;5.47;;
40373;SDS011;26079;45.958;12.492;2022-07-29T00:21:45;6.38;;;5.70;;
40373;SDS011;26079;45.958;12.492;2022-07-29T00:24:10;5.75;;;5.15;;
40373;SDS011;26079;45.958;12.492;2022-07-29T00:26:54;9.85;;;6.20;;
40373;SDS011;26079;45.958;12.492;2022-07-29T00:29:20;9.68;;;6.13;;
40373;SDS011;26079;45.958;12.492;2022-07-29T00:31:46;7.43;;;5.07;;
40373;SDS011;26079;45.958;12.492;2022-07-29T00:34:11;9.02;;;6.15;;
40373;SDS011;26079;45.958;12.492;2022-07-29T00:36:56;11.00;;;5.90;;
40373;SDS011;26079;45.958;12.492;2022-07-29T00:39:22;11.93;;;6.20;;
40373;SDS011;26079;45.958;12.492;2022-07-29T00:41:47;7.18;;;5.50;;
40373;SDS011;26079;45.958;12.492;2022-07-29T00:44:13;6.25;;;5.65;;
40373;SDS011;26079;45.958;12.492;2022-07-29T00:46:39;6.45;;;5.85;;
40373;SDS011;26079;45.958;12.492;2022-07-29T00:49:05;7.43;;;5.88;;
40373;SDS011;26079;45.958;12.492;2022-07-29T00:51:32;13.13;;;5.28;;
40373;SDS011;26079;45.958;12.492;2022-07-29T00:54:02;6.40;;;5.78;;
40373;SDS011;26079;45.958;12.492;2022-07-29T00:56:32;7.20;;;5.82;;
40373;SDS011;26079;45.958;12.492;2022-07-29T00:58:59;10.90;;;6.53;;
40373;SDS011;26079;45.958;12.492;2022-07-29T01:01:25;8.18;;;5.95;;
40373;SDS011;26079;45.958;12.492;2022-07-29T01:03:51;7.10;;;5.30;;
40373;SDS011;26079;45.958;12.492;2022-07-29T01:06:17;5.85;;;5.20;;
40373;SDS011;26079;45.958;12.492;2022-07-29T01:08:44;5.60;;;5.10;;
40373;SDS011;26079;45.958;12.492;2022-07-29T01:11:11;6.90;;;5.80;;
40373;SDS011;26079;45.958;12.492;2022-07-29T01:13:37;10.23;;;5.10;;
40373;SDS011;26079;45.958;12.492;2022-07-29T01:16:07;6.47;;;5.82;;
40373;SDS011;26079;45.958;12.492;2022-07-29T01:18:46;10.68;;;5.22;;
40373;SDS011;26079;45.958;12.492;2022-07-29T01:21:23;4.97;;;4.10;;
40373;SDS011;26079;45.958;12.492;2022-07-29T01:29:43;6.07;;;4.82;;
40373;SDS011;26079;45.958;12.492;2022-07-29T01:32:15;8.07;;;4.55;;
40373;SDS011;26079;45.958;12.492;2022-07-29T01:37:29;5.10;;;4.60;;
40373;SDS011;26079;45.958;12.492;2022-07-29T01:40:03;7.00;;;4.63;;
40373;SDS011;26079;45.958;12.492;2022-07-29T01:42:35;4.88;;;4.45;;
40373;SDS011;26079;45.958;12.492;2022-07-29T01:50:58;4.25;;;3.95;;
40373;SDS011;26079;45.958;12.492;2022-07-29T01:53:39;5.80;;;3.83;;
40373;SDS011;26079;45.958;12.492;2022-07-29T01:56:19;5.20;;;4.70;;
40373;SDS011;26079;45.958;12.492;2022-07-29T01:58:47;5.53;;;4.22;;
40373;SDS011;26079;45.958;12.492;2022-07-29T02:01:15;6.60;;;5.13;;
40373;SDS011;26079;45.958;12.492;2022-07-29T02:03:43;6.50;;;4.15;;
40373;SDS011;26079;45.958;12.492;2022-07-29T02:06:10;6.30;;;3.97;;
40373;SDS011;26079;45.958;12.492;2022-07-29T02:08:37;8.43;;;3.75;;
40373;SDS011;26079;45.958;12.492;2022-07-29T02:11:04;3.85;;;3.50;;
40373;SDS011;26079;45.958;12.492;2022-07-29T02:13:31;3.88;;;3.40;;
40373;SDS011;26079;45.958;12.492;2022-07-29T02:15:59;5.05;;;3.33;;
40373;SDS011;26079;45.958;12.492;2022-07-29T02:18:27;3.75;;;3.10;;
40373;SDS011;26079;45.958;12.492;2022-07-29T02:20:55;5.32;;;3.78;;
40373;SDS011;26079;45.958;12.492;2022-07-29T02:23:23;4.22;;;3.80;;
40373;SDS011;26079;45.958;12.492;2022-07-29T02:25:59;4.25;;;3.85;;
40373;SDS011;26079;45.958;12.492;2022-07-29T02:28:27;5.38;;;4.18;;
40373;SDS011;26079;45.958;12.492;2022-07-29T02:30:55;7.15;;;3.88;;
40373;SDS011;26079;45.958;12.492;2022-07-29T02:33:25;4.88;;;4.15;;
40373;SDS011;26079;45.958;12.492;2022-07-29T02:35:52;13.68;;;5.57;;
40373;SDS011;26079;45.958;12.492;2022-07-29T02:38:20;11.20;;;5.20;;
40373;SDS011;26079;45.958;12.492;2022-07-29T02:41:08;5.60;;;5.00;;
40373;SDS011;26079;45.958;12.492;2022-07-29T02:43:36;8.60;;;5.07;;
40373;SDS011;26079;45.958;12.492;2022-07-29T02:46:04;5.30;;;4.80;;
40373;SDS011;26079;45.958;12.492;2022-07-29T02:48:37;5.90;;;5.40;;
40373;SDS011;26079;45.958;12.492;2022-07-29T02:51:13;7.85;;;6.10;;
40373;SDS011;26079;45.958;12.492;2022-07-29T02:53:49;6.60;;;5.90;;
40373;SDS011;26079;45.958;12.492;2022-07-29T02:56:18;6.00;;;5.15;;
40373;SDS011;26079;45.958;12.492;2022-07-29T02:58:52;7.00;;;5.25;;
40373;SDS011;26079;45.958;12.492;2022-07-29T03:01:23;9.70;;;5.53;;
40373;SDS011;26079;45.958;12.492;2022-07-29T03:03:51;6.22;;;4.95;;
40373;SDS011;26079;45.958;12.492;2022-07-29T03:06:19;5.88;;;4.63;;
40373;SDS011;26079;45.958;12.492;2022-07-29T03:08:47;6.57;;;5.47;;
40373;SDS011;26079;45.958;12.492;2022-07-29T03:11:14;6.07;;;5.53;;
40373;SDS011;26079;45.958;12.492;2022-07-29T03:13:41;6.05;;;4.93;;
40373;SDS011;26079;45.958;12.492;2022-07-29T03:16:07;7.35;;;5.13;;
40373;SDS011;26079;45.958;12.492;2022-07-29T03:18:34;5.18;;;4.50;;
40373;SDS011;26079;45.958;12.492;2022-07-29T03:21:01;6.03;;;4.75;;
40373;SDS011;26079;45.958;12.492;2022-07-29T03:23:28;7.72;;;5.63;;
40373;SDS011;26079;45.958;12.492;2022-07-29T03:25:54;5.13;;;4.50;;
40373;SDS011;26079;45.958;12.492;2022-07-29T03:28:20;5.32;;;4.82;;
40373;SDS011;26079;45.958;12.492;2022-07-29T03:30:46;5.10;;;4.65;;
40373;SDS011;26079;45.958;12.492;2022-07-29T03:33:12;9.18;;;5.00;;
40373;SDS011;26079;45.958;12.492;2022-07-29T03:35:37;8.48;;;5.90;;
40373;SDS011;26079;45.958;12.492;2022-07-29T03:38:03;5.82;;;4.50;;
40373;SDS011;26079;45.958;12.492;2022-07-29T03:40:38;6.03;;;5.47;;
40373;SDS011;26079;45.958;12.492;2022-07-29T03:43:07;9.40;;;5.57;;
40373;SDS011;26079;45.958;12.492;2022-07-29T03:45:34;4.90;;;4.50;;
40373;SDS011;26079;45.958;12.492;2022-07-29T03:48:02;5.75;;;5.15;;
40373;SDS011;26079;45.958;12.492;2022-07-29T03:50:33;10.53;;;4.40;;
40373;SDS011;26079;45.958;12.492;2022-07-29T03:53:00;6.15;;;5.45;;
40373;SDS011;26079;45.958;12.492;2022-07-29T03:55:28;6.18;;;5.20;;
40373;SDS011;26079;45.958;12.492;2022-07-29T03:57:56;5.70;;;5.05;;
40373;SDS011;26079;45.958;12.492;2022-07-29T04:00:23;5.70;;;4.55;;
40373;SDS011;26079;45.958;12.492;2022-07-29T04:02:50;5.22;;;4.82;;
40373;SDS011;26079;45.958;12.492;2022-07-29T04:05:17;12.18;;;4.88;;
40373;SDS011;26079;45.958;12.492;2022-07-29T04:07:44;6.38;;;5.07;;
40373;SDS011;26079;45.958;12.492;2022-07-29T04:10:11;6.65;;;4.88;;
40373;SDS011;26079;45.958;12.492;2022-07-29T04:12:37;7.10;;;4.63;;
40373;SDS011;26079;45.958;12.492;2022-07-29T04:15:03;5.90;;;5.03;;
40373;SDS011;26079;45.958;12.492;2022-07-29T04:17:29;5.63;;;4.85;;
40373;SDS011;26079;45.958;12.492;2022-07-29T04:19:55;5.30;;;4.88;;
40373;SDS011;26079;45.958;12.492;2022-07-29T04:22:20;5.93;;;4.70;;
40373;SDS011;26079;45.958;12.492;2022-07-29T04:24:46;5.22;;;3.92;;
40373;SDS011;26079;45.958;12.492;2022-07-29T04:27:12;6.32;;;4.80;;
40373;SDS011;26079;45.958;12.492;2022-07-29T04:29:38;5.50;;;4.88;;
40373;SDS011;26079;45.958;12.492;2022-07-29T04:32:03;4.60;;;4.20;;
40373;SDS011;26079;45.958;12.492;2022-07-29T04:34:29;5.18;;;4.28;;
40373;SDS011;26079;45.958;12.492;2022-07-29T04:36:55;8.15;;;5.05;;
40373;SDS011;26079;45.958;12.492;2022-07-29T04:39:21;8.00;;;4.45;;
40373;SDS011;26079;45.958;12.492;2022-07-29T04:41:46;11.95;;;5.53;;
40373;SDS011;26079;45.958;12.492;2022-07-29T04:44:12;8.85;;;5.97;;
40373;SDS011;26079;45.958;12.492;2022-07-29T04:46:38;11.32;;;6.07;;
40373;SDS011;26079;45.958;12.492;2022-07-29T04:49:04;9.82;;;5.13;;
40373;SDS011;26079;45.958;12.492;2022-07-29T04:51:30;6.40;;;4.97;;
40373;SDS011;26079;45.958;12.492;2022-07-29T04:53:56;8.95;;;5.00;;
40373;SDS011;26079;45.958;12.492;2022-07-29T04:56:22;6.25;;;5.00;;
40373;SDS011;26079;45.958;12.492;2022-07-29T04:58:48;9.65;;;5.18;;
40373;SDS011;26079;45.958;12.492;2022-07-29T05:01:14;9.75;;;5.38;;
40373;SDS011;26079;45.958;12.492;2022-07-29T05:03:40;7.45;;;4.85;;
40373;SDS011;26079;45.958;12.492;2022-07-29T05:06:05;8.38;;;5.55;;
40373;SDS011;26079;45.958;12.492;2022-07-29T05:08:31;8.40;;;5.07;;
40373;SDS011;26079;45.958;12.492;2022-07-29T05:10:57;6.10;;;4.85;;
40373;SDS011;26079;45.958;12.492;2022-07-29T05:13:23;5.40;;;4.90;;
40373;SDS011;26079;45.958;12.492;2022-07-29T05:15:49;7.75;;;5.60;;
40373;SDS011;26079;45.958;12.492;2022-07-29T05:18:15;8.45;;;5.50;;
40373;SDS011;26079;45.958;12.492;2022-07-29T05:20:40;6.97;;;5.25;;
40373;SDS011;26079;45.958;12.492;2022-07-29T05:23:06;9.90;;;4.82;;
40373;SDS011;26079;45.958;12.492;2022-07-29T05:25:32;4.78;;;4.38;;
40373;SDS011;26079;45.958;12.492;2022-07-29T05:27:58;10.75;;;4.20;;
40373;SDS011;26079;45.958;12.492;2022-07-29T05:30:24;10.18;;;4.55;;
40373;SDS011;26079;45.958;12.492;2022-07-29T05:32:50;6.20;;;4.63;;
40373;SDS011;26079;45.958;12.492;2022-07-29T05:35:15;6.80;;;4.25;;
40373;SDS011;26079;45.958;12.492;2022-07-29T05:37:41;5.13;;;3.08;;
40373;SDS011;26079;45.958;12.492;2022-07-29T05:40:07;5.78;;;3.65;;
40373;SDS011;26079;45.958;12.492;2022-07-29T05:42:33;7.28;;;3.60;;
40373;SDS011;26079;45.958;12.492;2022-07-29T05:45:00;4.32;;;3.20;;
40373;SDS011;26079;45.958;12.492;2022-07-29T05:47:26;9.70;;;4.25;;
40373;SDS011;26079;45.958;12.492;2022-07-29T05:49:51;7.50;;;3.78;;
40373;SDS011;26079;45.958;12.492;2022-07-29T05:52:17;3.72;;;3.25;;
40373;SDS011;26079;45.958;12.492;2022-07-29T05:54:43;3.45;;;3.15;;
40373;SDS011;26079;45.958;12.492;2022-07-29T05:57:15;7.20;;;3.78;;
40373;SDS011;26079;45.958;12.492;2022-07-29T05:59:42;8.73;;;3.60;;
40373;SDS011;26079;45.958;12.492;2022-07-29T06:02:07;15.93;;;4.18;;
40373;SDS011;26079;45.958;12.492;2022-07-29T06:04:33;10.52;;;3.80;;
40373;SDS011;26079;45.958;12.492;2022-07-29T06:06:59;5.85;;;4.60;;
40373;SDS011;26079;45.958;12.492;2022-07-29T06:09:24;8.13;;;4.05;;
40373;SDS011;26079;45.958;12.492;2022-07-29T06:11:51;6.00;;;3.13;;
40373;SDS011;26079;45.958;12.492;2022-07-29T06:14:17;4.20;;;3.15;;
40373;SDS011;26079;45.958;12.492;2022-07-29T06:16:43;6.10;;;3.50;;
40373;SDS011;26079;45.958;12.492;2022-07-29T06:19:09;6.45;;;3.55;;
40373;SDS011;26079;45.958;12.492;2022-07-29T06:21:34;7.03;;;3.40;;
40373;SDS011;26079;45.958;12.492;2022-07-29T06:24:00;6.22;;;3.60;;
40373;SDS011;26079;45.958;12.492;2022-07-29T06:26:26;8.35;;;3.70;;
40373;SDS011;26079;45.958;12.492;2022-07-29T06:28:51;13.02;;;3.90;;
40373;SDS011;26079;45.958;12.492;2022-07-29T06:31:17;8.13;;;3.97;;
40373;SDS011;26079;45.958;12.492;2022-07-29T06:33:42;7.13;;;3.58;;
40373;SDS011;26079;45.958;12.492;2022-07-29T06:36:08;8.07;;;3.83;;
40373;SDS011;26079;45.958;12.492;2022-07-29T06:38:34;5.15;;;3.42;;
40373;SDS011;26079;45.958;12.492;2022-07-29T06:41:00;12.57;;;3.58;;
40373;SDS011;26079;45.958;12.492;2022-07-29T06:43:32;5.10;;;3.03;;
40373;SDS011;26079;45.958;12.492;2022-07-29T06:46:01;11.10;;;3.42;;
40373;SDS011;26079;45.958;12.492;2022-07-29T06:48:28;8.27;;;3.83;;
40373;SDS011;26079;45.958;12.492;2022-07-29T06:50:54;7.03;;;3.63;;
40373;SDS011;26079;45.958;12.492;2022-07-29T06:53:20;6.20;;;3.20;;
40373;SDS011;26079;45.958;12.492;2022-07-29T06:55:45;5.50;;;4.03;;
40373;SDS011;26079;45.958;12.492;2022-07-29T06:58:11;4.00;;;3.53;;
40373;SDS011;26079;45.958;12.492;2022-07-29T07:00:39;3.15;;;2.80;;
40373;SDS011;26079;45.958;12.492;2022-07-29T07:03:05;4.85;;;2.83;;
40373;SDS011;26079;45.958;12.492;2022-07-29T07:05:31;3.60;;;2.35;;
40373;SDS011;26079;45.958;12.492;2022-07-29T07:07:56;4.65;;;2.83;;
40373;SDS011;26079;45.958;12.492;2022-07-29T07:10:22;4.55;;;3.08;;
40373;SDS011;26079;45.958;12.492;2022-07-29T07:12:48;7.03;;;3.53;;
40373;SDS011;26079;45.958;12.492;2022-07-29T07:15:13;5.72;;;3.25;;
40373;SDS011;26079;45.958;12.492;2022-07-29T07:17:39;5.68;;;2.72;;
40373;SDS011;26079;45.958;12.492;2022-07-29T07:20:05;5.15;;;2.78;;
40373;SDS011;26079;45.958;12.492;2022-07-29T07:22:31;12.60;;;3.30;;
40373;SDS011;26079;45.958;12.492;2022-07-29T07:24:57;3.38;;;2.30;;
40373;SDS011;26079;45.958;12.492;2022-07-29T07:27:22;3.35;;;3.05;;
40373;SDS011;26079;45.958;12.492;2022-07-29T07:29:48;5.32;;;3.22;;
40373;SDS011;26079;45.958;12.492;2022-07-29T07:32:14;7.43;;;3.95;;
40373;SDS011;26079;45.958;12.492;2022-07-29T07:34:41;4.68;;;2.90;;
40373;SDS011;26079;45.958;12.492;2022-07-29T07:37:08;4.07;;;3.10;;
40373;SDS011;26079;45.958;12.492;2022-07-29T07:39:34;7.45;;;3.47;;
40373;SDS011;26079;45.958;12.492;2022-07-29T07:41:59;7.78;;;3.42;;
40373;SDS011;26079;45.958;12.492;2022-07-29T07:44:25;10.40;;;2.72;;
40373;SDS011;26079;45.958;12.492;2022-07-29T07:46:51;8.43;;;3.10;;
40373;SDS011;26079;45.958;12.492;2022-07-29T07:49:17;6.03;;;3.15;;
40373;SDS011;26079;45.958;12.492;2022-07-29T07:51:43;7.45;;;3.28;;
40373;SDS011;26079;45.958;12.492;2022-07-29T07:54:08;3.83;;;3.05;;
40373;SDS011;26079;45.958;12.492;2022-07-29T07:56:34;6.47;;;3.65;;
40373;SDS011;26079;45.958;12.492;2022-07-29T07:59:00;5.85;;;3.45;;
40373;SDS011;26079;45.958;12.492;2022-07-29T08:01:26;3.22;;;3.00;;
40373;SDS011;26079;45.958;12.492;2022-07-29T08:03:51;3.75;;;3.13;;
40373;SDS011;26079;45.958;12.492;2022-07-29T08:06:17;6.35;;;3.67;;
40373;SDS011;26079;45.958;12.492;2022-07-29T08:08:43;5.97;;;3.20;;
40373;SDS011;26079;45.958;12.492;2022-07-29T08:11:08;4.07;;;3.35;;
40373;SDS011;26079;45.958;12.492;2022-07-29T08:13:34;10.07;;;3.63;;
40373;SDS011;26079;45.958;12.492;2022-07-29T08:16:00;4.35;;;3.75;;
40373;SDS011;26079;45.958;12.492;2022-07-29T08:18:30;4.97;;;3.80;;
40373;SDS011;26079;45.958;12.492;2022-07-29T08:20:56;8.32;;;3.80;;
40373;SDS011;26079;45.958;12.492;2022-07-29T08:23:23;4.07;;;3.25;;
40373;SDS011;26079;45.958;12.492;2022-07-29T08:25:49;5.43;;;3.65;;
40373;SDS011;26079;45.958;12.492;2022-07-29T08:28:15;4.05;;;3.63;;
40373;SDS011;26079;45.958;12.492;2022-07-29T08:30:41;4.78;;;3.58;;
40373;SDS011;26079;45.958;12.492;2022-07-29T08:33:07;6.43;;;3.83;;
40373;SDS011;26079;45.958;12.492;2022-07-29T08:35:33;3.60;;;3.22;;
40373;SDS011;26079;45.958;12.492;2022-07-29T08:37:58;3.35;;;3.05;;
40373;SDS011;26079;45.958;12.492;2022-07-29T08:40:24;6.90;;;4.15;;
40373;SDS011;26079;45.958;12.492;2022-07-29T08:42:50;4.72;;;4.32;;
40373;SDS011;26079;45.958;12.492;2022-07-29T08:45:16;5.93;;;3.42;;
40373;SDS011;26079;45.958;12.492;2022-07-29T08:47:43;5.68;;;3.33;;
40373;SDS011;26079;45.958;12.492;2022-07-29T08:50:10;3.63;;;3.13;;
40373;SDS011;26079;45.958;12.492;2022-07-29T08:52:38;4.65;;;3.92;;
40373;SDS011;26079;45.958;12.492;2022-07-29T08:55:06;9.07;;;3.78;;
40373;SDS011;26079;45.958;12.492;2022-07-29T08:57:33;4.82;;;3.65;;
40373;SDS011;26079;45.958;12.492;2022-07-29T09:00:00;9.18;;;3.38;;
40373;SDS011;26079;45.958;12.492;2022-07-29T09:02:28;3.53;;;3.22;;
40373;SDS011;26079;45.958;12.492;2022-07-29T09:04:58;3.72;;;2.97;;
40373;SDS011;26079;45.958;12.492;2022-07-29T09:07:27;6.32;;;3.45;;
40373;SDS011;26079;45.958;12.492;2022-07-29T09:09:53;3.90;;;3.50;;
40373;SDS011;26079;45.958;12.492;2022-07-29T09:12:18;4.20;;;3.15;;
40373;SDS011;26079;45.958;12.492;2022-07-29T09:14:47;4.28;;;3.95;;
40373;SDS011;26079;45.958;12.492;2022-07-29T09:17:13;5.47;;;3.80;;
40373;SDS011;26079;45.958;12.492;2022-07-29T09:19:41;4.43;;;3.63;;
40373;SDS011;26079;45.958;12.492;2022-07-29T09:22:07;5.63;;;3.63;;
40373;SDS011;26079;45.958;12.492;2022-07-29T09:24:44;12.30;;;4.03;;
40373;SDS011;26079;45.958;12.492;2022-07-29T09:29:45;4.00;;;3.25;;
40373;SDS011;26079;45.958;12.492;2022-07-29T09:32:12;5.47;;;3.92;;
40373;SDS011;26079;45.958;12.492;2022-07-29T09:34:38;4.97;;;3.88;;
40373;SDS011;26079;45.958;12.492;2022-07-29T09:37:04;5.93;;;4.28;;
40373;SDS011;26079;45.958;12.492;2022-07-29T09:39:31;6.60;;;3.42;;
40373;SDS011;26079;45.958;12.492;2022-07-29T09:41:59;5.32;;;3.58;;
40373;SDS011;26079;45.958;12.492;2022-07-29T09:44:48;15.75;;;3.28;;
40373;SDS011;26079;45.958;12.492;2022-07-29T09:47:15;3.97;;;3.63;;
40373;SDS011;26079;45.958;12.492;2022-07-29T09:49:50;4.32;;;3.60;;
40373;SDS011;26079;45.958;12.492;2022-07-29T09:52:22;4.55;;;3.13;;
40373;SDS011;26079;45.958;12.492;2022-07-29T09:54:49;5.88;;;3.85;;
40373;SDS011;26079;45.958;12.492;2022-07-29T09:57:25;4.60;;;3.88;;
40373;SDS011;26079;45.958;12.492;2022-07-29T10:00:05;6.03;;;3.75;;
40373;SDS011;26079;45.958;12.492;2022-07-29T10:02:36;8.43;;;4.00;;
40373;SDS011;26079;45.958;12.492;2022-07-29T10:05:04;9.20;;;5.00;;
40373;SDS011;26079;45.958;12.492;2022-07-29T10:07:47;5.65;;;3.72;;
40373;SDS011;26079;45.958;12.492;2022-07-29T10:12:53;4.70;;;3.53;;
40373;SDS011;26079;45.958;12.492;2022-07-29T10:15:20;6.35;;;4.00;;
40373;SDS011;26079;45.958;12.492;2022-07-29T10:17:48;4.68;;;3.88;;
40373;SDS011;26079;45.958;12.492;2022-07-29T10:20:14;5.45;;;4.30;;
40373;SDS011;26079;45.958;12.492;2022-07-29T10:22:40;4.32;;;3.92;;
40373;SDS011;26079;45.958;12.492;2022-07-29T10:25:07;6.00;;;3.75;;
40373;SDS011;26079;45.958;12.492;2022-07-29T10:27:34;4.45;;;3.92;;
40373;SDS011;26079;45.958;12.492;2022-07-29T10:30:01;5.70;;;4.32;;
40373;SDS011;26079;45.958;12.492;2022-07-29T10:43:51;4.78;;;4.35;;
40373;SDS011;26079;45.958;12.492;2022-07-29T10:46:41;5.97;;;4.03;;
40373;SDS011;26079;45.958;12.492;2022-07-29T10:49:12;7.93;;;4.80;;
40373;SDS011;26079;45.958;12.492;2022-07-29T10:51:55;5.55;;;4.18;;
40373;SDS011;26079;45.958;12.492;2022-07-29T10:59:41;5.57;;;4.20;;
40373;SDS011;26079;45.958;12.492;2022-07-29T11:07:24;4.28;;;3.45;;
40373;SDS011;26079;45.958;12.492;2022-07-29T11:15:29;3.70;;;3.40;;
40373;SDS011;26079;45.958;12.492;2022-07-29T11:18:19;4.38;;;3.80;;
40373;SDS011;26079;45.958;12.492;2022-07-29T11:20:46;4.22;;;3.75;;
40373;SDS011;26079;45.958;12.492;2022-07-29T11:31:39;4.40;;;4.00;;
40373;SDS011;26079;45.958;12.492;2022-07-29T11:39:39;7.60;;;3.10;;
40373;SDS011;26079;45.958;12.492;2022-07-29T11:44:59;6.70;;;4.05;;
40373;SDS011;26079;45.958;12.492;2022-07-29T11:47:27;3.30;;;2.75;;
40373;SDS011;26079;45.958;12.492;2022-07-29T11:49:55;7.95;;;3.60;;
40373;SDS011;26079;45.958;12.492;2022-07-29T11:52:22;10.82;;;3.47;;
40373;SDS011;26079;45.958;12.492;2022-07-29T11:54:57;6.35;;;3.45;;
40373;SDS011;26079;45.958;12.492;2022-07-29T11:57:24;3.40;;;3.10;;
40373;SDS011;26079;45.958;12.492;2022-07-29T11:59:50;4.55;;;3.45;;
40373;SDS011;26079;45.958;12.492;2022-07-29T12:02:16;4.68;;;3.67;;
40373;SDS011;26079;45.958;12.492;2022-07-29T12:04:52;6.35;;;3.78;;
40373;SDS011;26079;45.958;12.492;2022-07-29T12:07:19;7.30;;;3.40;;
40373;SDS011;26079;45.958;12.492;2022-07-29T12:09:55;4.32;;;3.05;;
40373;SDS011;26079;45.958;12.492;2022-07-29T12:12:21;4.45;;;3.50;;
40373;SDS011;26079;45.958;12.492;2022-07-29T12:14:47;10.68;;;3.78;;
40373;SDS011;26079;45.958;12.492;2022-07-29T12:17:30;4.07;;;3.78;;
40373;SDS011;26079;45.958;12.492;2022-07-29T12:19:58;5.20;;;3.15;;
40373;SDS011;26079;45.958;12.492;2022-07-29T12:22:32;5.05;;;3.60;;
40373;SDS011;26079;45.958;12.492;2022-07-29T12:25:06;5.93;;;3.20;;
40373;SDS011;26079;45.958;12.492;2022-07-29T12:27:34;3.15;;;2.78;;
40373;SDS011;26079;45.958;12.492;2022-07-29T12:30:02;5.03;;;3.60;;
40373;SDS011;26079;45.958;12.492;2022-07-29T12:32:33;3.85;;;3.15;;
40373;SDS011;26079;45.958;12.492;2022-07-29T12:35:02;3.50;;;3.20;;
40373;SDS011;26079;45.958;12.492;2022-07-29T12:37:38;4.55;;;3.55;;
40373;SDS011;26079;45.958;12.492;2022-07-29T12:40:06;3.20;;;2.63;;
40373;SDS011;26079;45.958;12.492;2022-07-29T12:42:33;3.53;;;2.72;;
40373;SDS011;26079;45.958;12.492;2022-07-29T12:44:59;3.05;;;2.67;;
40373;SDS011;26079;45.958;12.492;2022-07-29T12:47:26;3.90;;;3.10;;
40373;SDS011;26079;45.958;12.492;2022-07-29T12:50:07;6.50;;;3.25;;
40373;SDS011;26079;45.958;12.492;2022-07-29T12:52:42;6.72;;;3.05;;
40373;SDS011;26079;45.958;12.492;2022-07-29T12:55:09;3.83;;;2.97;;
40373;SDS011;26079;45.958;12.492;2022-07-29T12:57:47;4.82;;;2.95;;
40373;SDS011;26079;45.958;12.492;2022-07-29T13:00:21;3.38;;;2.33;;
40373;SDS011;26079;45.958;12.492;2022-07-29T13:05:20;5.93;;;3.00;;
40373;SDS011;26079;45.958;12.492;2022-07-29T13:07:46;3.00;;;2.80;;
40373;SDS011;26079;45.958;12.492;2022-07-29T13:10:15;4.07;;;3.00;;
40373;SDS011;26079;45.958;12.492;2022-07-29T13:13:02;2.88;;;2.65;;
40373;SDS011;26079;45.958;12.492;2022-07-29T13:15:39;2.60;;;2.40;;
40373;SDS011;26079;45.958;12.492;2022-07-29T13:18:26;5.43;;;2.70;;
40373;SDS011;26079;45.958;12.492;2022-07-29T13:20:53;3.13;;;2.75;;
40373;SDS011;26079;45.958;12.492;2022-07-29T13:23:19;3.65;;;2.75;;
40373;SDS011;26079;45.958;12.492;2022-07-29T13:25:45;6.03;;;2.63;;
40373;SDS011;26079;45.958;12.492;2022-07-29T13:28:11;6.25;;;2.65;;
40373;SDS011;26079;45.958;12.492;2022-07-29T13:30:37;3.08;;;2.08;;
40373;SDS011;26079;45.958;12.492;2022-07-29T13:33:04;2.35;;;2.05;;
40373;SDS011;26079;45.958;12.492;2022-07-29T13:35:29;2.22;;;1.92;;
40373;SDS011;26079;45.958;12.492;2022-07-29T13:37:55;4.20;;;2.05;;
40373;SDS011;26079;45.958;12.492;2022-07-29T13:40:21;9.60;;;2.40;;
40373;SDS011;26079;45.958;12.492;2022-07-29T13:42:47;5.05;;;2.50;;
40373;SDS011;26079;45.958;12.492;2022-07-29T13:45:13;4.75;;;2.85;;
40373;SDS011;26079;45.958;12.492;2022-07-29T13:47:39;4.28;;;3.00;;
40373;SDS011;26079;45.958;12.492;2022-07-29T13:50:06;2.50;;;2.30;;
40373;SDS011;26079;45.958;12.492;2022-07-29T13:52:34;2.97;;;2.50;;
40373;SDS011;26079;45.958;12.492;2022-07-29T13:55:01;2.95;;;2.75;;
40373;SDS011;26079;45.958;12.492;2022-07-29T13:57:28;2.58;;;2.33;;
40373;SDS011;26079;45.958;12.492;2022-07-29T13:59:54;4.28;;;2.97;;
40373;SDS011;26079;45.958;12.492;2022-07-29T14:02:20;3.83;;;2.33;;
40373;SDS011;26079;45.958;12.492;2022-07-29T14:04:46;5.82;;;3.05;;
40373;SDS011;26079;45.958;12.492;2022-07-29T14:07:12;3.38;;;2.67;;
40373;SDS011;26079;45.958;12.492;2022-07-29T14:09:37;2.05;;;1.85;;
40373;SDS011;26079;45.958;12.492;2022-07-29T14:12:03;5.38;;;2.88;;
40373;SDS011;26079;45.958;12.492;2022-07-29T14:14:29;3.67;;;3.08;;
40373;SDS011;26079;45.958;12.492;2022-07-29T14:16:56;5.18;;;2.85;;
40373;SDS011;26079;45.958;12.492;2022-07-29T14:19:22;3.38;;;2.80;;
40373;SDS011;26079;45.958;12.492;2022-07-29T14:21:48;4.10;;;2.95;;
40373;SDS011;26079;45.958;12.492;2022-07-29T14:24:13;6.18;;;3.53;;
40373;SDS011;26079;45.958;12.492;2022-07-29T14:26:39;3.22;;;2.58;;
40373;SDS011;26079;45.958;12.492;2022-07-29T14:29:05;3.55;;;2.58;;
40373;SDS011;26079;45.958;12.492;2022-07-29T14:31:30;2.60;;;2.30;;
40373;SDS011;26079;45.958;12.492;2022-07-29T14:33:56;7.15;;;3.22;;
40373;SDS011;26079;45.958;12.492;2022-07-29T14:36:22;3.42;;;3.05;;
40373;SDS011;26079;45.958;12.492;2022-07-29T14:38:47;9.73;;;3.45;;
40373;SDS011;26079;45.958;12.492;2022-07-29T14:41:13;3.10;;;2.72;;
40373;SDS011;26079;45.958;12.492;2022-07-29T14:43:39;4.95;;;3.63;;
40373;SDS011;26079;45.958;12.492;2022-07-29T14:46:04;11.40;;;3.08;;
40373;SDS011;26079;45.958;12.492;2022-07-29T14:48:32;4.43;;;3.33;;
40373;SDS011;26079;45.958;12.492;2022-07-29T14:50:57;12.32;;;2.65;;
40373;SDS011;26079;45.958;12.492;2022-07-29T14:53:23;4.68;;;2.80;;
40373;SDS011;26079;45.958;12.492;2022-07-29T14:55:49;5.88;;;4.20;;
40373;SDS011;26079;45.958;12.492;2022-07-29T14:58:15;6.72;;;3.33;;
40373;SDS011;26079;45.958;12.492;2022-07-29T15:00:40;5.95;;;3.15;;
40373;SDS011;26079;45.958;12.492;2022-07-29T15:03:06;3.50;;;3.10;;
40373;SDS011;26079;45.958;12.492;2022-07-29T15:05:35;5.32;;;3.20;;
40373;SDS011;26079;45.958;12.492;2022-07-29T15:08:01;3.28;;;2.97;;
40373;SDS011;26079;45.958;12.492;2022-07-29T15:10:27;3.22;;;2.92;;
40373;SDS011;26079;45.958;12.492;2022-07-29T15:12:53;3.95;;;3.38;;
40373;SDS011;26079;45.958;12.492;2022-07-29T15:15:20;4.38;;;3.53;;
40373;SDS011;26079;45.958;12.492;2022-07-29T15:17:46;3.33;;;3.10;;
40373;SDS011;26079;45.958;12.492;2022-07-29T15:20:12;3.40;;;3.10;;
40373;SDS011;26079;45.958;12.492;2022-07-29T15:22:38;4.03;;;3.45;;
40373;SDS011;26079;45.958;12.492;2022-07-29T15:25:06;3.67;;;3.33;;
40373;SDS011;26079;45.958;12.492;2022-07-29T15:27:32;5.22;;;3.80;;
40373;SDS011;26079;45.958;12.492;2022-07-29T15:29:57;3.95;;;3.28;;
40373;SDS011;26079;45.958;12.492;2022-07-29T15:32:23;3.95;;;3.28;;
40373;SDS011;26079;45.958;12.492;2022-07-29T15:34:49;3.83;;;3.40;;
40373;SDS011;26079;45.958;12.492;2022-07-29T15:37:14;4.38;;;3.75;;
40373;SDS011;26079;45.958;12.492;2022-07-29T15:39:40;3.25;;;3.00;;
40373;SDS011;26079;45.958;12.492;2022-07-29T15:42:06;5.85;;;3.15;;
40373;SDS011;26079;45.958;12.492;2022-07-29T15:44:31;6.03;;;3.38;;